sensor_id;sensor_type;location;lat;lon;timestamp;P1;durP1;ratioP1;P2;durP2;ratioP2
27863;SDS011;15980;51.092;13.916;2022-10-16T00:00:43;26.33;;;15.50;;
27863;SDS011;15980;51.092;13.916;2022-10-16T00:05:46;26.38;;;14.63;;
27863;SDS011;15980;51.092;13.916;2022-10-16T00:10:49;28.35;;;15.75;;
27863;SDS011;15980;51.092;13.916;2022-10-16T00:15:55;28.73;;;16.73;;
27863;SDS011;15980;51.092;13.916;2022-10-16T00:21:01;26.75;;;15.90;;
27863;SDS011;15980;51.092;13.916;2022-10-16T00:26:05;28.55;;;15.63;;
27863;SDS011;15980;51.092;13.916;2022-10-16T00:31:12;28.30;;;16.00;;
27863;SDS011;15980;51.092;13.916;2022-10-16T00:36:16;25.33;;;14.98;;
27863;SDS011;15980;51.092;13.916;2022-10-16T00:41:20;24.55;;;13.48;;
27863;SDS011;15980;51.092;13.916;2022-10-16T00:46:27;25.58;;;14.50;;
27863;SDS011;15980;51.092;13.916;2022-10-16T00:51:33;24.52;;;15.25;;
27863;SDS011;15980;51.092;13.916;2022-10-16T00:56:37;24.00;;;13.88;;
27863;SDS011;15980;51.092;13.916;2022-10-16T01:01:41;25.77;;;15.32;;
27863;SDS011;15980;51.092;13.916;2022-10-16T01:06:46;26.23;;;15.93;;
27863;SDS011;15980;51.092;13.916;2022-10-16T01:11:56;27.45;;;16.08;;
27863;SDS011;15980;51.092;13.916;2022-10-16T01:17:09;28.85;;;16.50;;
27863;SDS011;15980;51.092;13.916;2022-10-16T01:22:15;33.15;;;18.58;;
27863;SDS011;15980;51.092;13.916;2022-10-16T01:27:22;36.97;;;19.23;;
27863;SDS011;15980;51.092;13.916;2022-10-16T01:32:31;33.38;;;19.13;;
27863;SDS011;15980;51.092;13.916;2022-10-16T01:37:40;32.95;;;17.90;;
27863;SDS011;15980;51.092;13.916;2022-10-16T01:42:50;32.17;;;18.08;;
27863;SDS011;15980;51.092;13.916;2022-10-16T01:48:00;30.23;;;17.67;;
27863;SDS011;15980;51.092;13.916;2022-10-16T01:53:06;28.15;;;17.10;;
27863;SDS011;15980;51.092;13.916;2022-10-16T01:58:13;25.40;;;15.95;;
27863;SDS011;15980;51.092;13.916;2022-10-16T02:03:18;28.08;;;17.00;;
27863;SDS011;15980;51.092;13.916;2022-10-16T02:08:23;28.73;;;17.20;;
27863;SDS011;15980;51.092;13.916;2022-10-16T02:13:32;26.73;;;16.80;;
27863;SDS011;15980;51.092;13.916;2022-10-16T02:18:38;24.27;;;14.95;;
27863;SDS011;15980;51.092;13.916;2022-10-16T02:23:42;25.13;;;15.77;;
27863;SDS011;15980;51.092;13.916;2022-10-16T02:28:54;25.65;;;16.13;;
27863;SDS011;15980;51.092;13.916;2022-10-16T02:34:02;23.83;;;15.23;;
27863;SDS011;15980;51.092;13.916;2022-10-16T02:39:07;25.17;;;15.55;;
27863;SDS011;15980;51.092;13.916;2022-10-16T02:44:12;23.52;;;14.85;;
27863;SDS011;15980;51.092;13.916;2022-10-16T02:49:15;22.30;;;14.70;;
27863;SDS011;15980;51.092;13.916;2022-10-16T02:54:19;24.95;;;14.80;;
27863;SDS011;15980;51.092;13.916;2022-10-16T02:59:23;21.67;;;14.80;;
27863;SDS011;15980;51.092;13.916;2022-10-16T03:04:26;20.83;;;13.25;;
27863;SDS011;15980;51.092;13.916;2022-10-16T03:09:29;25.38;;;14.95;;
27863;SDS011;15980;51.092;13.916;2022-10-16T03:14:33;24.08;;;14.18;;
27863;SDS011;15980;51.092;13.916;2022-10-16T03:19:36;20.50;;;13.43;;
27863;SDS011;15980;51.092;13.916;2022-10-16T03:24:39;23.23;;;14.68;;
27863;SDS011;15980;51.092;13.916;2022-10-16T03:29:43;19.27;;;14.02;;
27863;SDS011;15980;51.092;13.916;2022-10-16T03:34:46;20.50;;;14.02;;
27863;SDS011;15980;51.092;13.916;2022-10-16T03:39:49;19.55;;;12.95;;
27863;SDS011;15980;51.092;13.916;2022-10-16T03:44:54;21.58;;;14.15;;
27863;SDS011;15980;51.092;13.916;2022-10-16T03:49:57;22.23;;;13.77;;
27863;SDS011;15980;51.092;13.916;2022-10-16T03:54:59;23.90;;;14.30;;
27863;SDS011;15980;51.092;13.916;2022-10-16T04:00:04;19.65;;;13.50;;
27863;SDS011;15980;51.092;13.916;2022-10-16T04:05:08;21.00;;;13.82;;
27863;SDS011;15980;51.092;13.916;2022-10-16T04:10:11;19.88;;;13.52;;
27863;SDS011;15980;51.092;13.916;2022-10-16T04:15:15;19.98;;;12.65;;
27863;SDS011;15980;51.092;13.916;2022-10-16T04:20:18;21.15;;;13.73;;
27863;SDS011;15980;51.092;13.916;2022-10-16T04:25:22;21.33;;;14.15;;
27863;SDS011;15980;51.092;13.916;2022-10-16T04:30:26;21.08;;;14.02;;
27863;SDS011;15980;51.092;13.916;2022-10-16T04:35:29;24.65;;;14.68;;
27863;SDS011;15980;51.092;13.916;2022-10-16T04:40:32;20.77;;;12.85;;
27863;SDS011;15980;51.092;13.916;2022-10-16T04:45:38;22.70;;;13.60;;
27863;SDS011;15980;51.092;13.916;2022-10-16T04:50:41;17.13;;;12.35;;
27863;SDS011;15980;51.092;13.916;2022-10-16T04:55:44;17.35;;;12.27;;
27863;SDS011;15980;51.092;13.916;2022-10-16T05:00:49;17.05;;;12.27;;
27863;SDS011;15980;51.092;13.916;2022-10-16T05:05:52;16.98;;;11.85;;
27863;SDS011;15980;51.092;13.916;2022-10-16T05:10:55;19.48;;;12.48;;
27863;SDS011;15980;51.092;13.916;2022-10-16T05:15:59;17.65;;;11.77;;
27863;SDS011;15980;51.092;13.916;2022-10-16T05:21:02;18.83;;;12.38;;
27863;SDS011;15980;51.092;13.916;2022-10-16T05:26:05;18.85;;;12.70;;
27863;SDS011;15980;51.092;13.916;2022-10-16T05:31:09;19.35;;;13.05;;
27863;SDS011;15980;51.092;13.916;2022-10-16T05:36:12;18.23;;;12.63;;
27863;SDS011;15980;51.092;13.916;2022-10-16T05:41:15;19.67;;;13.45;;
27863;SDS011;15980;51.092;13.916;2022-10-16T05:46:24;20.85;;;13.70;;
27863;SDS011;15980;51.092;13.916;2022-10-16T05:51:26;20.00;;;13.70;;
27863;SDS011;15980;51.092;13.916;2022-10-16T05:56:29;21.77;;;14.88;;
27863;SDS011;15980;51.092;13.916;2022-10-16T06:01:33;27.73;;;15.65;;
27863;SDS011;15980;51.092;13.916;2022-10-16T06:06:37;26.30;;;16.65;;
27863;SDS011;15980;51.092;13.916;2022-10-16T06:11:39;26.55;;;16.45;;
27863;SDS011;15980;51.092;13.916;2022-10-16T06:16:44;24.25;;;16.02;;
27863;SDS011;15980;51.092;13.916;2022-10-16T06:21:47;26.40;;;17.20;;
27863;SDS011;15980;51.092;13.916;2022-10-16T06:26:50;25.85;;;15.77;;
27863;SDS011;15980;51.092;13.916;2022-10-16T06:31:55;22.38;;;14.57;;
27863;SDS011;15980;51.092;13.916;2022-10-16T06:36:58;22.58;;;14.50;;
27863;SDS011;15980;51.092;13.916;2022-10-16T06:42:01;23.23;;;15.55;;
27863;SDS011;15980;51.092;13.916;2022-10-16T06:47:05;21.38;;;14.77;;
27863;SDS011;15980;51.092;13.916;2022-10-16T06:52:08;18.27;;;13.82;;
27863;SDS011;15980;51.092;13.916;2022-10-16T06:57:12;21.13;;;14.07;;
27863;SDS011;15980;51.092;13.916;2022-10-16T07:02:16;19.60;;;13.32;;
27863;SDS011;15980;51.092;13.916;2022-10-16T07:07:19;18.27;;;13.30;;
27863;SDS011;15980;51.092;13.916;2022-10-16T07:12:22;16.52;;;12.30;;
27863;SDS011;15980;51.092;13.916;2022-10-16T07:17:27;15.93;;;11.40;;
27863;SDS011;15980;51.092;13.916;2022-10-16T07:22:30;12.68;;;9.65;;
27863;SDS011;15980;51.092;13.916;2022-10-16T07:27:33;10.05;;;7.63;;
27863;SDS011;15980;51.092;13.916;2022-10-16T07:32:42;10.48;;;8.02;;
27863;SDS011;15980;51.092;13.916;2022-10-16T07:37:45;8.88;;;6.90;;
27863;SDS011;15980;51.092;13.916;2022-10-16T07:42:48;8.05;;;6.57;;
27863;SDS011;15980;51.092;13.916;2022-10-16T07:47:52;13.13;;;6.65;;
27863;SDS011;15980;51.092;13.916;2022-10-16T07:52:55;10.32;;;6.32;;
27863;SDS011;15980;51.092;13.916;2022-10-16T07:57:58;9.77;;;6.40;;
27863;SDS011;15980;51.092;13.916;2022-10-16T08:03:02;6.90;;;5.80;;
27863;SDS011;15980;51.092;13.916;2022-10-16T08:08:05;7.38;;;5.63;;
27863;SDS011;15980;51.092;13.916;2022-10-16T08:13:08;7.13;;;5.18;;
27863;SDS011;15980;51.092;13.916;2022-10-16T08:18:12;6.50;;;5.00;;
27863;SDS011;15980;51.092;13.916;2022-10-16T08:23:16;9.23;;;6.88;;
27863;SDS011;15980;51.092;13.916;2022-10-16T08:28:19;8.30;;;6.45;;
27863;SDS011;15980;51.092;13.916;2022-10-16T08:33:24;6.53;;;5.40;;
27863;SDS011;15980;51.092;13.916;2022-10-16T08:38:28;10.07;;;6.13;;
27863;SDS011;15980;51.092;13.916;2022-10-16T08:43:40;9.32;;;7.55;;
27863;SDS011;15980;51.092;13.916;2022-10-16T08:55:28;10.52;;;8.73;;
27863;SDS011;15980;51.092;13.916;2022-10-16T09:00:34;10.63;;;8.50;;
27863;SDS011;15980;51.092;13.916;2022-10-16T09:11:20;11.90;;;9.05;;
27863;SDS011;15980;51.092;13.916;2022-10-16T09:16:34;11.48;;;8.77;;
27863;SDS011;15980;51.092;13.916;2022-10-16T09:21:41;11.15;;;8.10;;
27863;SDS011;15980;51.092;13.916;2022-10-16T09:26:47;12.77;;;8.60;;
27863;SDS011;15980;51.092;13.916;2022-10-16T09:31:50;11.88;;;8.82;;
27863;SDS011;15980;51.092;13.916;2022-10-16T09:36:55;10.90;;;8.75;;
27863;SDS011;15980;51.092;13.916;2022-10-16T09:42:01;11.25;;;9.05;;
27863;SDS011;15980;51.092;13.916;2022-10-16T09:47:12;17.40;;;9.52;;
27863;SDS011;15980;51.092;13.916;2022-10-16T09:52:19;10.95;;;8.40;;
27863;SDS011;15980;51.092;13.916;2022-10-16T09:57:24;12.80;;;9.18;;
27863;SDS011;15980;51.092;13.916;2022-10-16T10:02:28;12.52;;;8.98;;
27863;SDS011;15980;51.092;13.916;2022-10-16T10:07:35;11.73;;;9.50;;
27863;SDS011;15980;51.092;13.916;2022-10-16T10:12:46;11.35;;;9.13;;
27863;SDS011;15980;51.092;13.916;2022-10-16T10:17:50;9.27;;;7.32;;
27863;SDS011;15980;51.092;13.916;2022-10-16T10:22:54;9.15;;;7.22;;
27863;SDS011;15980;51.092;13.916;2022-10-16T10:28:06;7.75;;;6.55;;
27863;SDS011;15980;51.092;13.916;2022-10-16T10:33:21;7.30;;;6.15;;
27863;SDS011;15980;51.092;13.916;2022-10-16T10:38:34;8.52;;;2.83;;
27863;SDS011;15980;51.092;13.916;2022-10-16T10:43:49;4.20;;;2.30;;
27863;SDS011;15980;51.092;13.916;2022-10-16T10:49:09;2.38;;;1.58;;
27863;SDS011;15980;51.092;13.916;2022-10-16T10:54:20;1.35;;;1.20;;
27863;SDS011;15980;51.092;13.916;2022-10-16T10:59:45;2.85;;;1.42;;
27863;SDS011;15980;51.092;13.916;2022-10-16T11:05:20;2.80;;;1.60;;
27863;SDS011;15980;51.092;13.916;2022-10-16T11:10:34;1.98;;;1.50;;
27863;SDS011;15980;51.092;13.916;2022-10-16T11:15:47;1.10;;;1.00;;
27863;SDS011;15980;51.092;13.916;2022-10-16T11:20:53;1.35;;;1.20;;
27863;SDS011;15980;51.092;13.916;2022-10-16T11:26:02;1.38;;;1.20;;
27863;SDS011;15980;51.092;13.916;2022-10-16T11:32:11;1.55;;;1.20;;
27863;SDS011;15980;51.092;13.916;2022-10-16T11:38:19;1.23;;;1.02;;
27863;SDS011;15980;51.092;13.916;2022-10-16T11:43:28;4.43;;;0.82;;
27863;SDS011;15980;51.092;13.916;2022-10-16T11:48:41;1.73;;;1.20;;
27863;SDS011;15980;51.092;13.916;2022-10-16T11:53:51;0.50;;;0.50;;
27863;SDS011;15980;51.092;13.916;2022-10-16T12:04:12;1.00;;;0.52;;
27863;SDS011;15980;51.092;13.916;2022-10-16T12:09:23;0.30;;;0.30;;
27863;SDS011;15980;51.092;13.916;2022-10-16T12:14:38;8.05;;;0.70;;
27863;SDS011;15980;51.092;13.916;2022-10-16T12:20:18;0.45;;;0.40;;
27863;SDS011;15980;51.092;13.916;2022-10-16T12:25:25;1.25;;;0.38;;
27863;SDS011;15980;51.092;13.916;2022-10-16T12:30:32;0.45;;;0.40;;
27863;SDS011;15980;51.092;13.916;2022-10-16T12:35:43;0.80;;;0.40;;
27863;SDS011;15980;51.092;13.916;2022-10-16T12:40:47;2.38;;;0.50;;
27863;SDS011;15980;51.092;13.916;2022-10-16T12:46:01;0.60;;;0.40;;
27863;SDS011;15980;51.092;13.916;2022-10-16T12:51:20;0.50;;;0.40;;
27863;SDS011;15980;51.092;13.916;2022-10-16T12:56:27;0.98;;;0.40;;
27863;SDS011;15980;51.092;13.916;2022-10-16T13:01:46;4.45;;;0.57;;
27863;SDS011;15980;51.092;13.916;2022-10-16T13:07:03;1.20;;;0.50;;
27863;SDS011;15980;51.092;13.916;2022-10-16T13:12:42;1.08;;;0.52;;
27863;SDS011;15980;51.092;13.916;2022-10-16T13:18:05;0.68;;;0.57;;
27863;SDS011;15980;51.092;13.916;2022-10-16T13:23:19;0.50;;;0.50;;
27863;SDS011;15980;51.092;13.916;2022-10-16T13:33:32;0.57;;;0.55;;
27863;SDS011;15980;51.092;13.916;2022-10-16T13:38:39;1.30;;;0.50;;
27863;SDS011;15980;51.092;13.916;2022-10-16T13:43:42;1.20;;;0.55;;
27863;SDS011;15980;51.092;13.916;2022-10-16T13:48:55;1.90;;;0.60;;
27863;SDS011;15980;51.092;13.916;2022-10-16T13:54:00;0.80;;;0.50;;
27863;SDS011;15980;51.092;13.916;2022-10-16T13:59:04;1.35;;;0.57;;
27863;SDS011;15980;51.092;13.916;2022-10-16T14:04:08;0.75;;;0.50;;
27863;SDS011;15980;51.092;13.916;2022-10-16T14:09:16;0.75;;;0.50;;
27863;SDS011;15980;51.092;13.916;2022-10-16T14:14:24;0.65;;;0.57;;
27863;SDS011;15980;51.092;13.916;2022-10-16T14:19:28;1.10;;;0.60;;
27863;SDS011;15980;51.092;13.916;2022-10-16T14:24:34;0.50;;;0.50;;
27863;SDS011;15980;51.092;13.916;2022-10-16T14:29:37;0.50;;;0.50;;
27863;SDS011;15980;51.092;13.916;2022-10-16T14:34:40;0.63;;;0.43;;
27863;SDS011;15980;51.092;13.916;2022-10-16T14:39:48;0.45;;;0.45;;
27863;SDS011;15980;51.092;13.916;2022-10-16T14:44:51;0.60;;;0.60;;
27863;SDS011;15980;51.092;13.916;2022-10-16T14:49:55;0.50;;;0.50;;
27863;SDS011;15980;51.092;13.916;2022-10-16T14:55:01;0.50;;;0.50;;
27863;SDS011;15980;51.092;13.916;2022-10-16T15:00:06;0.75;;;0.60;;
27863;SDS011;15980;51.092;13.916;2022-10-16T15:05:18;0.60;;;0.55;;
27863;SDS011;15980;51.092;13.916;2022-10-16T15:10:25;1.42;;;0.90;;
27863;SDS011;15980;51.092;13.916;2022-10-16T15:15:32;1.90;;;0.90;;
27863;SDS011;15980;51.092;13.916;2022-10-16T15:20:37;1.27;;;0.80;;
27863;SDS011;15980;51.092;13.916;2022-10-16T15:25:43;2.67;;;1.40;;
27863;SDS011;15980;51.092;13.916;2022-10-16T15:30:48;4.60;;;3.00;;
27863;SDS011;15980;51.092;13.916;2022-10-16T15:35:52;1.55;;;1.00;;
27863;SDS011;15980;51.092;13.916;2022-10-16T15:40:57;2.47;;;0.88;;
27863;SDS011;15980;51.092;13.916;2022-10-16T15:46:00;1.58;;;1.27;;
27863;SDS011;15980;51.092;13.916;2022-10-16T15:51:05;1.20;;;1.00;;
27863;SDS011;15980;51.092;13.916;2022-10-16T15:56:10;2.15;;;1.10;;
27863;SDS011;15980;51.092;13.916;2022-10-16T16:01:13;1.65;;;1.10;;
27863;SDS011;15980;51.092;13.916;2022-10-16T16:06:16;2.45;;;1.60;;
27863;SDS011;15980;51.092;13.916;2022-10-16T16:11:20;5.10;;;3.15;;
27863;SDS011;15980;51.092;13.916;2022-10-16T16:16:24;2.65;;;2.03;;
27863;SDS011;15980;51.092;13.916;2022-10-16T16:21:27;3.47;;;2.60;;
27863;SDS011;15980;51.092;13.916;2022-10-16T16:26:31;2.80;;;2.17;;
27863;SDS011;15980;51.092;13.916;2022-10-16T16:31:37;4.13;;;1.75;;
27863;SDS011;15980;51.092;13.916;2022-10-16T16:36:40;2.03;;;1.83;;
27863;SDS011;15980;51.092;13.916;2022-10-16T16:41:44;2.22;;;1.77;;
27863;SDS011;15980;51.092;13.916;2022-10-16T16:46:47;4.25;;;2.70;;
27863;SDS011;15980;51.092;13.916;2022-10-16T16:51:50;3.63;;;2.83;;
27863;SDS011;15980;51.092;13.916;2022-10-16T16:56:56;5.15;;;2.80;;
27863;SDS011;15980;51.092;13.916;2022-10-16T17:01:59;6.30;;;3.15;;
27863;SDS011;15980;51.092;13.916;2022-10-16T17:07:02;9.85;;;5.35;;
27863;SDS011;15980;51.092;13.916;2022-10-16T17:12:06;7.05;;;5.00;;
27863;SDS011;15980;51.092;13.916;2022-10-16T17:17:09;7.60;;;4.82;;
27863;SDS011;15980;51.092;13.916;2022-10-16T17:22:11;7.10;;;4.45;;
27863;SDS011;15980;51.092;13.916;2022-10-16T17:27:16;8.35;;;3.70;;
27863;SDS011;15980;51.092;13.916;2022-10-16T17:32:19;5.43;;;3.95;;
27863;SDS011;15980;51.092;13.916;2022-10-16T17:37:22;6.90;;;4.18;;
27863;SDS011;15980;51.092;13.916;2022-10-16T17:42:26;5.28;;;4.00;;
27863;SDS011;15980;51.092;13.916;2022-10-16T17:47:29;4.50;;;3.42;;
27863;SDS011;15980;51.092;13.916;2022-10-16T17:52:31;4.80;;;3.60;;
27863;SDS011;15980;51.092;13.916;2022-10-16T17:57:35;4.78;;;4.03;;
27863;SDS011;15980;51.092;13.916;2022-10-16T18:02:38;5.60;;;4.28;;
27863;SDS011;15980;51.092;13.916;2022-10-16T18:07:42;4.60;;;3.90;;
27863;SDS011;15980;51.092;13.916;2022-10-16T18:12:46;5.45;;;4.53;;
27863;SDS011;15980;51.092;13.916;2022-10-16T18:17:49;4.93;;;4.00;;
27863;SDS011;15980;51.092;13.916;2022-10-16T18:22:52;6.32;;;4.53;;
27863;SDS011;15980;51.092;13.916;2022-10-16T18:27:56;5.35;;;3.95;;
27863;SDS011;15980;51.092;13.916;2022-10-16T18:32:59;5.35;;;3.83;;
27863;SDS011;15980;51.092;13.916;2022-10-16T18:38:02;5.05;;;4.07;;
27863;SDS011;15980;51.092;13.916;2022-10-16T18:43:06;5.07;;;3.90;;
27863;SDS011;15980;51.092;13.916;2022-10-16T18:48:09;4.75;;;3.50;;
27863;SDS011;15980;51.092;13.916;2022-10-16T18:53:11;4.25;;;3.30;;
27863;SDS011;15980;51.092;13.916;2022-10-16T18:58:16;6.63;;;3.20;;
27863;SDS011;15980;51.092;13.916;2022-10-16T19:03:19;4.28;;;3.10;;
27863;SDS011;15980;51.092;13.916;2022-10-16T19:08:22;4.70;;;3.47;;
27863;SDS011;15980;51.092;13.916;2022-10-16T19:13:26;3.28;;;2.75;;
27863;SDS011;15980;51.092;13.916;2022-10-16T19:18:29;25.98;;;17.10;;
27863;SDS011;15980;51.092;13.916;2022-10-16T19:23:38;57.55;;;32.70;;
27863;SDS011;15980;51.092;13.916;2022-10-16T19:28:42;29.45;;;17.00;;
27863;SDS011;15980;51.092;13.916;2022-10-16T19:33:46;17.42;;;9.32;;
27863;SDS011;15980;51.092;13.916;2022-10-16T19:38:53;12.23;;;6.93;;
27863;SDS011;15980;51.092;13.916;2022-10-16T19:44:00;27.83;;;15.57;;
27863;SDS011;15980;51.092;13.916;2022-10-16T19:49:05;36.08;;;19.60;;
27863;SDS011;15980;51.092;13.916;2022-10-16T19:54:10;13.68;;;8.48;;
27863;SDS011;15980;51.092;13.916;2022-10-16T19:59:15;19.45;;;10.02;;
27863;SDS011;15980;51.092;13.916;2022-10-16T20:04:20;32.72;;;15.18;;
27863;SDS011;15980;51.092;13.916;2022-10-16T20:09:23;31.58;;;15.63;;
27863;SDS011;15980;51.092;13.916;2022-10-16T20:14:27;21.88;;;11.23;;
27863;SDS011;15980;51.092;13.916;2022-10-16T20:19:29;18.27;;;9.57;;
27863;SDS011;15980;51.092;13.916;2022-10-16T20:24:32;16.33;;;8.48;;
27863;SDS011;15980;51.092;13.916;2022-10-16T20:29:36;9.77;;;5.07;;
27863;SDS011;15980;51.092;13.916;2022-10-16T20:34:39;8.05;;;4.45;;
27863;SDS011;15980;51.092;13.916;2022-10-16T20:39:46;10.35;;;4.22;;
27863;SDS011;15980;51.092;13.916;2022-10-16T20:44:50;6.25;;;3.85;;
27863;SDS011;15980;51.092;13.916;2022-10-16T20:49:53;4.35;;;2.35;;
27863;SDS011;15980;51.092;13.916;2022-10-16T20:54:56;5.50;;;2.50;;
27863;SDS011;15980;51.092;13.916;2022-10-16T21:00:00;3.90;;;2.67;;
27863;SDS011;15980;51.092;13.916;2022-10-16T21:05:03;2.75;;;2.30;;
27863;SDS011;15980;51.092;13.916;2022-10-16T21:10:06;8.20;;;2.70;;
27863;SDS011;15980;51.092;13.916;2022-10-16T21:15:11;4.00;;;2.60;;
27863;SDS011;15980;51.092;13.916;2022-10-16T21:20:15;2.80;;;2.08;;
27863;SDS011;15980;51.092;13.916;2022-10-16T21:25:18;3.75;;;2.63;;
27863;SDS011;15980;51.092;13.916;2022-10-16T21:30:22;4.60;;;2.60;;
27863;SDS011;15980;51.092;13.916;2022-10-16T21:35:24;4.03;;;2.50;;
27863;SDS011;15980;51.092;13.916;2022-10-16T21:40:27;3.42;;;2.50;;
27863;SDS011;15980;51.092;13.916;2022-10-16T21:45:32;11.80;;;4.75;;
27863;SDS011;15980;51.092;13.916;2022-10-16T21:50:35;3.30;;;2.60;;
27863;SDS011;15980;51.092;13.916;2022-10-16T21:55:38;3.63;;;2.40;;
27863;SDS011;15980;51.092;13.916;2022-10-16T22:00:42;4.15;;;2.55;;
27863;SDS011;15980;51.092;13.916;2022-10-16T22:05:45;3.55;;;2.20;;
27863;SDS011;15980;51.092;13.916;2022-10-16T22:10:47;3.88;;;2.42;;
27863;SDS011;15980;51.092;13.916;2022-10-16T22:15:51;5.85;;;3.35;;
27863;SDS011;15980;51.092;13.916;2022-10-16T22:20:56;3.33;;;2.58;;
27863;SDS011;15980;51.092;13.916;2022-10-16T22:25:59;5.88;;;3.67;;
27863;SDS011;15980;51.092;13.916;2022-10-16T22:31:05;4.25;;;3.10;;
27863;SDS011;15980;51.092;13.916;2022-10-16T22:36:11;4.38;;;2.78;;
27863;SDS011;15980;51.092;13.916;2022-10-16T22:41:15;3.90;;;3.00;;
27863;SDS011;15980;51.092;13.916;2022-10-16T22:46:20;6.32;;;3.00;;
27863;SDS011;15980;51.092;13.916;2022-10-16T22:51:24;3.92;;;2.78;;
27863;SDS011;15980;51.092;13.916;2022-10-16T22:56:28;7.10;;;2.80;;
27863;SDS011;15980;51.092;13.916;2022-10-16T23:01:32;3.42;;;2.50;;
27863;SDS011;15980;51.092;13.916;2022-10-16T23:06:37;3.30;;;2.28;;
27863;SDS011;15980;51.092;13.916;2022-10-16T23:11:39;4.00;;;2.75;;
27863;SDS011;15980;51.092;13.916;2022-10-16T23:16:43;4.20;;;2.80;;
27863;SDS011;15980;51.092;13.916;2022-10-16T23:21:46;3.40;;;2.78;;
27863;SDS011;15980;51.092;13.916;2022-10-16T23:26:49;5.03;;;2.67;;
27863;SDS011;15980;51.092;13.916;2022-10-16T23:31:53;4.68;;;2.85;;
27863;SDS011;15980;51.092;13.916;2022-10-16T23:36:56;6.00;;;2.70;;
27863;SDS011;15980;51.092;13.916;2022-10-16T23:41:59;4.63;;;2.92;;
27863;SDS011;15980;51.092;13.916;2022-10-16T23:47:03;4.68;;;3.28;;
27863;SDS011;15980;51.092;13.916;2022-10-16T23:52:06;5.05;;;2.95;;
27863;SDS011;15980;51.092;13.916;2022-10-16T23:57:09;5.75;;;3.88;;
